createdAt,value
2018-07-31T00:01:03.882Z,24.70
2018-07-31T00:06:22.904Z,24.70
2018-07-31T00:08:52.968Z,24.60
2018-07-31T00:11:21.678Z,24.60
2018-07-31T00:16:19.641Z,24.50
2018-07-31T00:18:48.276Z,24.40
2018-07-31T00:21:16.947Z,24.40
2018-07-31T00:23:45.614Z,24.40
2018-07-31T00:26:14.365Z,24.30
2018-07-31T00:28:43.843Z,24.30
2018-07-31T00:31:12.447Z,24.20
2018-07-31T00:33:41.043Z,24.20
2018-07-31T00:36:09.652Z,24.20
2018-07-31T00:38:38.305Z,24.10
2018-07-31T00:41:06.948Z,24.10
2018-07-31T00:43:35.548Z,24.10
2018-07-31T00:46:04.227Z,24.20
2018-07-31T00:48:32.839Z,24.20
2018-07-31T00:51:01.452Z,24.30
2018-07-31T00:53:30.064Z,24.20
2018-07-31T00:55:58.680Z,24.20
2018-07-31T00:58:27.290Z,24.10
2018-07-31T01:00:55.932Z,24.10
2018-07-31T01:03:24.571Z,24.00
2018-07-31T01:05:53.247Z,24.00
2018-07-31T01:08:21.860Z,24.10
2018-07-31T01:10:50.575Z,24.10
2018-07-31T01:13:19.184Z,24.00
2018-07-31T01:15:47.791Z,24.00
2018-07-31T01:18:16.402Z,24.00
2018-07-31T01:20:48.252Z,24.00
2018-07-31T01:23:17.009Z,24.00
2018-07-31T01:25:45.603Z,23.90
2018-07-31T01:28:14.278Z,23.90
2018-07-31T01:30:42.896Z,23.80
2018-07-31T01:33:11.500Z,23.90
2018-07-31T01:35:40.108Z,23.80
2018-07-31T01:38:08.280Z,23.80
2018-07-31T01:40:37.013Z,23.80
2018-07-31T01:43:05.651Z,23.80
2018-07-31T01:45:34.339Z,23.80
2018-07-31T01:48:02.941Z,23.70
2018-07-31T01:50:31.536Z,23.60
2018-07-31T01:53:00.176Z,23.60
2018-07-31T01:55:28.783Z,23.60
2018-07-31T01:57:57.400Z,23.60
2018-07-31T02:00:26.000Z,23.60
2018-07-31T02:02:54.607Z,23.50
2018-07-31T02:05:23.232Z,23.50
2018-07-31T02:07:52.291Z,23.40
2018-07-31T02:10:20.884Z,23.40
2018-07-31T02:12:49.483Z,23.40
2018-07-31T02:15:18.127Z,23.30
2018-07-31T02:17:46.736Z,23.20
2018-07-31T02:20:15.349Z,23.20
2018-07-31T02:22:43.951Z,23.20
2018-07-31T02:25:12.605Z,23.20
2018-07-31T02:27:41.207Z,23.10
2018-07-31T02:30:14.228Z,23.00
2018-07-31T02:35:11.080Z,23.00
2018-07-31T02:37:39.729Z,23.10
2018-07-31T02:40:08.354Z,23.10
2018-07-31T02:45:07.460Z,23.10
2018-07-31T02:47:36.076Z,23.00
2018-07-31T02:50:05.156Z,22.90
2018-07-31T02:52:33.821Z,22.90
2018-07-31T02:55:07.904Z,22.80
2018-07-31T02:57:36.604Z,22.80
2018-07-31T03:00:06.552Z,22.80
2018-07-31T03:02:35.249Z,22.80
2018-07-31T03:05:04.552Z,22.70
2018-07-31T03:07:33.181Z,22.70
2018-07-31T03:10:01.863Z,22.60
2018-07-31T03:12:30.432Z,22.50
2018-07-31T03:14:59.068Z,22.50
2018-07-31T03:17:27.699Z,22.50
2018-07-31T03:19:56.304Z,22.50
2018-07-31T03:22:24.912Z,22.60
2018-07-31T03:24:53.548Z,22.60
2018-07-31T03:27:22.153Z,22.60
2018-07-31T03:29:50.748Z,22.60
2018-07-31T03:32:19.380Z,22.50
2018-07-31T03:34:47.990Z,22.50
2018-07-31T03:37:16.599Z,22.50
2018-07-31T03:39:45.200Z,22.40
2018-07-31T03:42:13.815Z,22.30
2018-07-31T03:44:42.465Z,22.30
2018-07-31T03:47:11.112Z,22.30
2018-07-31T03:49:39.719Z,22.30
2018-07-31T03:52:08.319Z,22.30
2018-07-31T03:54:36.923Z,22.20
2018-07-31T03:57:05.700Z,22.20
2018-07-31T03:59:34.308Z,22.20
2018-07-31T04:02:02.936Z,22.10
2018-07-31T04:04:31.543Z,22.20
2018-07-31T04:07:00.144Z,22.20
2018-07-31T04:09:28.743Z,22.20
2018-07-31T04:11:57.344Z,22.30
2018-07-31T04:14:25.932Z,22.30
2018-07-31T04:16:54.603Z,22.30
2018-07-31T04:19:23.200Z,22.30
2018-07-31T04:21:51.797Z,22.20
2018-07-31T04:24:20.391Z,22.10
2018-07-31T04:26:49.011Z,22.10
2018-07-31T04:29:17.608Z,22.10
2018-07-31T04:31:46.214Z,22.10
2018-07-31T04:34:14.808Z,22.10
2018-07-31T04:36:43.436Z,22.10
2018-07-31T04:39:13.331Z,22.10
2018-07-31T04:41:42.168Z,22.10
2018-07-31T04:44:10.796Z,22.20
2018-07-31T04:46:39.449Z,22.20
2018-07-31T04:49:08.056Z,22.20
2018-07-31T04:51:36.708Z,22.20
2018-07-31T04:54:05.368Z,22.20
2018-07-31T04:59:02.224Z,22.30
2018-07-31T05:01:30.847Z,22.30
2018-07-31T05:03:59.455Z,22.30
2018-07-31T05:06:28.051Z,22.30
2018-07-31T05:08:56.750Z,22.40
2018-07-31T05:11:25.459Z,22.40
2018-07-31T05:13:54.056Z,22.40
2018-07-31T05:16:22.696Z,22.40
2018-07-31T05:18:51.296Z,22.50
2018-07-31T05:21:19.914Z,22.50
2018-07-31T05:23:48.535Z,22.60
2018-07-31T05:26:17.199Z,22.70
2018-07-31T05:28:45.796Z,22.70
2018-07-31T05:31:14.391Z,22.80
2018-07-31T05:33:42.991Z,22.90
2018-07-31T05:36:11.608Z,23.00
2018-07-31T05:38:40.207Z,23.10
2018-07-31T05:41:08.813Z,23.10
2018-07-31T05:43:37.402Z,23.20
2018-07-31T05:46:06.249Z,23.30
2018-07-31T05:48:34.895Z,23.40
2018-07-31T05:51:03.539Z,23.50
2018-07-31T05:53:32.411Z,23.70
2018-07-31T05:56:01.172Z,23.90
2018-07-31T05:58:29.772Z,24.00
2018-07-31T06:00:58.376Z,24.10
2018-07-31T06:03:27.032Z,24.20
2018-07-31T06:05:55.628Z,24.30
2018-07-31T06:08:24.231Z,24.50
2018-07-31T06:10:52.823Z,24.70
2018-07-31T06:13:21.432Z,24.90
2018-07-31T06:15:50.041Z,25.30
2018-07-31T06:18:18.676Z,25.80
2018-07-31T06:20:47.288Z,26.10
2018-07-31T06:23:15.936Z,26.50
2018-07-31T06:25:44.561Z,26.90
2018-07-31T06:28:13.159Z,27.20
2018-07-31T06:30:50.164Z,27.40
2018-07-31T06:33:22.614Z,27.80
2018-07-31T06:35:51.264Z,28.20
2018-07-31T06:38:20.619Z,28.60
2018-07-31T06:40:49.467Z,29.10
2018-07-31T06:43:19.036Z,29.50
2018-07-31T06:45:48.124Z,29.80
2018-07-31T06:48:17.644Z,30.20
2018-07-31T06:50:50.866Z,30.50
2018-07-31T06:53:20.999Z,30.70
2018-07-31T06:58:47.163Z,31.20
2018-07-31T07:01:16.353Z,31.50
2018-07-31T07:03:49.856Z,31.70
2018-07-31T07:11:40.661Z,32.20
2018-07-31T07:14:09.363Z,32.40
2018-07-31T07:16:55.535Z,32.70
2018-07-31T07:19:24.295Z,32.80
2018-07-31T07:22:00.551Z,32.90
2018-07-31T07:24:29.243Z,33.10
2018-07-31T07:27:01.997Z,33.10
2018-07-31T07:29:30.771Z,33.20
2018-07-31T07:31:59.509Z,33.30
2018-07-31T07:34:28.201Z,33.50
2018-07-31T07:36:56.879Z,33.60
2018-07-31T07:39:25.512Z,33.70
2018-07-31T07:41:54.201Z,33.80
2018-07-31T07:44:22.928Z,33.90
2018-07-31T07:46:51.581Z,33.90
2018-07-31T07:49:20.287Z,34.00
2018-07-31T07:51:48.941Z,34.10
2018-07-31T07:54:17.699Z,34.10
2018-07-31T07:56:46.348Z,34.20
2018-07-31T07:59:15.036Z,34.10
2018-07-31T08:01:43.707Z,34.10
2018-07-31T08:04:12.412Z,34.20
2018-07-31T08:06:41.135Z,34.30
2018-07-31T08:09:10.318Z,34.40
2018-07-31T08:11:39.140Z,34.50
2018-07-31T08:14:07.867Z,34.50
2018-07-31T08:16:36.584Z,34.40
2018-07-31T08:19:05.271Z,34.40
2018-07-31T08:21:33.927Z,34.30
2018-07-31T08:24:02.722Z,34.30
2018-07-31T08:26:31.437Z,34.20
2018-07-31T08:29:00.056Z,34.20
2018-07-31T08:31:28.828Z,34.20
2018-07-31T08:33:57.469Z,34.10
2018-07-31T08:36:26.122Z,34.00
2018-07-31T08:38:54.792Z,33.90
2018-07-31T08:41:23.433Z,33.90
2018-07-31T08:43:52.360Z,33.90
2018-07-31T08:46:21.017Z,34.00
2018-07-31T08:48:49.653Z,34.00
2018-07-31T08:51:18.327Z,34.10
2018-07-31T08:53:46.948Z,34.20
2018-07-31T08:56:15.547Z,34.30
2018-07-31T08:58:46.443Z,34.30
2018-07-31T09:01:15.104Z,34.20
2018-07-31T09:03:43.736Z,34.10
2018-07-31T09:06:12.396Z,34.00
2018-07-31T09:08:41.093Z,33.90
2018-07-31T09:11:09.750Z,33.90
2018-07-31T09:13:38.444Z,34.00
2018-07-31T09:16:07.096Z,34.10
2018-07-31T09:18:36.064Z,34.10
2018-07-31T09:21:04.924Z,34.00
2018-07-31T09:23:33.609Z,33.90
2018-07-31T09:26:02.263Z,33.90
2018-07-31T09:28:30.895Z,33.90
2018-07-31T09:31:05.021Z,34.00
2018-07-31T09:33:33.571Z,34.00
2018-07-31T09:36:02.192Z,34.00
2018-07-31T09:38:30.788Z,33.80
2018-07-31T09:40:59.417Z,34.00
2018-07-31T09:45:56.308Z,34.60
2018-07-31T09:48:24.937Z,34.90
2018-07-31T09:50:53.635Z,35.00
2018-07-31T09:53:22.264Z,35.20
2018-07-31T09:55:50.911Z,35.40
2018-07-31T09:58:19.539Z,35.50
2018-07-31T10:00:53.488Z,35.70
2018-07-31T10:03:22.171Z,35.70
2018-07-31T10:05:50.818Z,35.70
2018-07-31T10:08:20.372Z,35.80
2018-07-31T10:10:49.956Z,36.00
2018-07-31T10:13:18.731Z,36.10
2018-07-31T10:15:47.416Z,36.20
2018-07-31T10:18:16.164Z,36.30
2018-07-31T10:20:44.720Z,36.30
2018-07-31T10:23:13.351Z,36.50
2018-07-31T10:25:42.016Z,36.60
2018-07-31T10:28:10.636Z,36.60
2018-07-31T10:30:39.288Z,36.60
2018-07-31T10:33:07.956Z,36.70
2018-07-31T10:35:36.684Z,36.70
2018-07-31T10:38:05.440Z,36.80
2018-07-31T10:40:34.063Z,37.10
2018-07-31T10:43:02.684Z,37.10
2018-07-31T10:45:31.301Z,37.30
2018-07-31T10:47:59.896Z,37.30
2018-07-31T10:50:28.533Z,37.40
2018-07-31T10:52:57.187Z,37.40
2018-07-31T10:55:25.818Z,37.50
2018-07-31T10:57:54.472Z,37.60
2018-07-31T11:00:23.172Z,37.60
2018-07-31T11:02:51.943Z,37.60
2018-07-31T11:05:20.528Z,37.70
2018-07-31T11:07:49.136Z,37.80
2018-07-31T11:10:17.800Z,37.80
2018-07-31T11:12:46.479Z,37.90
2018-07-31T11:15:15.224Z,38.00
2018-07-31T11:17:43.910Z,38.00
2018-07-31T11:20:12.559Z,38.00
2018-07-31T11:22:41.197Z,38.10
2018-07-31T11:25:09.872Z,38.20
2018-07-31T11:27:39.141Z,38.30
2018-07-31T11:30:07.851Z,38.20
2018-07-31T11:32:36.453Z,38.40
2018-07-31T11:35:05.963Z,38.40
2018-07-31T11:37:35.683Z,38.40
2018-07-31T11:40:04.447Z,38.40
2018-07-31T11:42:33.237Z,38.40
2018-07-31T11:45:02.181Z,38.60
2018-07-31T11:47:30.852Z,38.60
2018-07-31T11:49:59.576Z,38.80
2018-07-31T11:52:28.122Z,38.70
2018-07-31T11:54:56.832Z,38.80
2018-07-31T11:57:25.455Z,38.90
2018-07-31T11:59:54.083Z,39.00
2018-07-31T12:02:22.729Z,39.00
2018-07-31T12:04:51.351Z,39.00
2018-07-31T12:07:20.006Z,38.90
2018-07-31T12:09:48.679Z,38.90
2018-07-31T12:12:17.311Z,38.80
2018-07-31T12:14:46.096Z,38.80
2018-07-31T12:17:14.764Z,38.80
2018-07-31T12:19:43.404Z,38.80
2018-07-31T12:22:12.078Z,38.90
2018-07-31T12:24:40.692Z,38.90
2018-07-31T12:27:09.359Z,39.10
2018-07-31T12:29:38.009Z,39.00
2018-07-31T12:32:06.889Z,38.80
2018-07-31T12:34:35.502Z,38.90
2018-07-31T12:37:04.179Z,39.00
2018-07-31T12:39:32.796Z,38.90
2018-07-31T12:42:01.473Z,38.80
2018-07-31T12:44:30.098Z,38.80
2018-07-31T12:46:58.798Z,38.80
2018-07-31T12:49:27.449Z,38.80
2018-07-31T12:51:56.083Z,38.90
2018-07-31T12:54:24.697Z,39.00
2018-07-31T12:56:53.700Z,39.00
2018-07-31T12:59:22.389Z,39.00
2018-07-31T13:01:51.087Z,38.90
2018-07-31T13:04:19.734Z,39.00
2018-07-31T13:06:48.394Z,39.10
2018-07-31T13:09:18.712Z,39.20
2018-07-31T13:11:49.252Z,39.20
2018-07-31T13:14:17.931Z,39.30
2018-07-31T13:16:46.581Z,39.50
2018-07-31T13:19:15.220Z,39.40
2018-07-31T13:21:43.847Z,39.40
2018-07-31T13:24:12.511Z,39.50
2018-07-31T13:26:41.149Z,39.60
2018-07-31T13:29:12.080Z,39.60
2018-07-31T13:31:40.756Z,39.50
2018-07-31T13:34:09.388Z,39.60
2018-07-31T13:39:09.360Z,39.60
2018-07-31T13:41:38.014Z,39.50
2018-07-31T13:44:07.313Z,39.60
2018-07-31T13:46:36.844Z,39.50
2018-07-31T13:49:06.112Z,39.50
2018-07-31T13:51:34.984Z,39.40
2018-07-31T13:54:03.789Z,39.40
2018-07-31T13:56:32.479Z,39.40
2018-07-31T13:59:01.295Z,39.50
2018-07-31T14:01:29.945Z,39.60
2018-07-31T14:03:58.636Z,39.60
2018-07-31T14:06:27.276Z,39.70
2018-07-31T14:08:55.892Z,39.60
2018-07-31T14:11:25.448Z,39.60
2018-07-31T14:13:55.902Z,39.60
2018-07-31T14:16:24.531Z,39.50
2018-07-31T14:18:53.717Z,39.50
2018-07-31T14:21:23.124Z,39.50
2018-07-31T14:23:51.752Z,39.40
2018-07-31T14:26:20.368Z,39.40
2018-07-31T14:28:49.141Z,39.40
2018-07-31T14:31:17.855Z,39.40
2018-07-31T14:33:46.529Z,39.30
2018-07-31T14:36:15.224Z,39.30
2018-07-31T14:38:43.937Z,39.30
2018-07-31T14:41:12.644Z,39.20
2018-07-31T14:43:41.272Z,39.10
2018-07-31T14:46:11.783Z,39.00
2018-07-31T14:48:40.420Z,39.00
2018-07-31T14:51:09.248Z,39.00
2018-07-31T14:53:37.919Z,38.90
2018-07-31T14:56:07.348Z,38.80
2018-07-31T14:58:36.052Z,38.80
2018-07-31T15:01:04.676Z,38.80
2018-07-31T15:03:33.313Z,38.70
2018-07-31T15:06:02.012Z,38.70
2018-07-31T15:08:31.529Z,38.60
2018-07-31T15:11:00.164Z,38.60
2018-07-31T15:13:28.992Z,38.60
2018-07-31T15:15:57.656Z,38.50
2018-07-31T15:18:26.604Z,38.40
2018-07-31T15:20:55.406Z,38.40
2018-07-31T15:23:24.037Z,38.30
2018-07-31T15:25:52.701Z,38.30
2018-07-31T15:28:22.595Z,38.20
2018-07-31T15:30:51.240Z,38.20
2018-07-31T15:33:19.943Z,38.10
2018-07-31T15:35:48.619Z,38.00
2018-07-31T15:38:17.235Z,38.00
2018-07-31T15:40:45.928Z,38.00
2018-07-31T15:43:15.137Z,38.00
2018-07-31T15:45:44.180Z,38.00
2018-07-31T15:50:41.268Z,37.90
2018-07-31T15:53:10.016Z,37.90
2018-07-31T15:55:38.944Z,37.90
2018-07-31T15:58:07.940Z,37.80
2018-07-31T16:00:36.584Z,37.80
2018-07-31T16:03:05.345Z,37.80
2018-07-31T16:05:34.092Z,37.80
2018-07-31T16:08:02.733Z,37.70
2018-07-31T16:10:31.400Z,37.60
2018-07-31T16:13:00.102Z,37.60
2018-07-31T16:15:28.764Z,37.50
2018-07-31T16:17:57.408Z,37.50
2018-07-31T16:20:26.076Z,37.40
2018-07-31T16:25:23.187Z,37.30
2018-07-31T16:27:51.880Z,37.30
2018-07-31T16:30:20.532Z,37.20
2018-07-31T16:32:49.140Z,37.20
2018-07-31T16:35:17.832Z,37.10
2018-07-31T16:37:46.496Z,37.10
2018-07-31T16:40:15.180Z,37.10
2018-07-31T16:42:43.801Z,37.00
2018-07-31T16:45:12.426Z,36.90
2018-07-31T16:47:41.134Z,36.80
2018-07-31T16:50:09.772Z,36.80
2018-07-31T16:52:39.008Z,36.70
2018-07-31T16:55:07.677Z,36.60
2018-07-31T16:57:36.296Z,36.50
2018-07-31T17:00:06.108Z,36.40
2018-07-31T17:02:34.732Z,36.40
2018-07-31T17:05:03.428Z,36.30
2018-07-31T17:07:32.053Z,36.30
2018-07-31T17:10:00.716Z,36.20
2018-07-31T17:14:57.668Z,36.00
2018-07-31T17:17:46.171Z,35.90
2018-07-31T17:20:15.826Z,35.80
2018-07-31T17:22:47.993Z,35.80
2018-07-31T17:25:17.221Z,35.70
2018-07-31T17:27:45.840Z,35.60
2018-07-31T17:30:14.652Z,35.50
2018-07-31T17:32:45.402Z,35.40
2018-07-31T17:35:14.218Z,35.30
2018-07-31T17:37:44.296Z,35.30
2018-07-31T17:40:13.334Z,35.20
2018-07-31T17:42:41.977Z,35.20
2018-07-31T17:45:10.663Z,35.10
2018-07-31T17:47:41.492Z,35.10
2018-07-31T17:50:10.251Z,35.00
2018-07-31T17:52:38.896Z,34.90
2018-07-31T17:55:07.672Z,34.90
2018-07-31T17:57:36.332Z,34.80
2018-07-31T18:00:05.719Z,34.80
2018-07-31T18:02:34.401Z,34.80
2018-07-31T18:05:03.177Z,34.70
2018-07-31T18:07:31.812Z,34.60
2018-07-31T18:10:00.416Z,34.60
2018-07-31T18:12:29.096Z,34.50
2018-07-31T18:14:57.792Z,34.40
2018-07-31T18:17:26.472Z,34.30
2018-07-31T18:19:55.130Z,34.30
2018-07-31T18:22:23.795Z,34.20
2018-07-31T18:24:52.412Z,34.10
2018-07-31T18:27:21.077Z,34.00
2018-07-31T18:29:49.699Z,34.00
2018-07-31T18:32:18.311Z,33.90
2018-07-31T18:34:46.936Z,33.80
2018-07-31T18:37:15.605Z,33.80
2018-07-31T18:39:44.340Z,33.70
2018-07-31T18:42:13.981Z,33.70
2018-07-31T18:44:42.635Z,33.60
2018-07-31T18:47:11.363Z,33.60
2018-07-31T18:49:40.006Z,33.50
2018-07-31T18:52:08.703Z,33.40
2018-07-31T18:54:37.351Z,33.40
2018-07-31T18:57:06.051Z,33.30
2018-07-31T18:59:34.726Z,33.20
2018-07-31T19:02:03.372Z,33.10
2018-07-31T19:04:32.032Z,33.00
2018-07-31T19:07:00.685Z,33.00
2018-07-31T19:09:29.745Z,32.90
2018-07-31T19:11:58.389Z,32.80
2018-07-31T19:14:27.008Z,32.80
2018-07-31T19:16:55.625Z,32.60
2018-07-31T19:19:24.574Z,32.60
2018-07-31T19:21:53.228Z,32.50
2018-07-31T19:24:21.872Z,32.40
2018-07-31T19:26:50.508Z,32.30
2018-07-31T19:29:19.857Z,32.30
2018-07-31T19:31:48.557Z,32.20
2018-07-31T19:34:17.216Z,32.10
2018-07-31T19:36:45.871Z,32.10
2018-07-31T19:39:14.595Z,32.00
2018-07-31T19:41:48.785Z,31.90
2018-07-31T19:44:17.489Z,31.80
2018-07-31T19:46:46.127Z,31.70
2018-07-31T19:49:14.899Z,31.60
2018-07-31T19:51:43.556Z,31.50
2018-07-31T19:54:12.219Z,31.40
2018-07-31T19:56:40.904Z,31.30
2018-07-31T19:59:09.516Z,31.20
2018-07-31T20:01:38.124Z,31.10
2018-07-31T20:04:06.749Z,31.00
2018-07-31T20:06:35.364Z,30.80
2018-07-31T20:09:05.303Z,30.70
2018-07-31T20:11:33.924Z,30.50
2018-07-31T20:14:02.540Z,30.50
2018-07-31T20:16:31.151Z,30.30
2018-07-31T20:21:28.152Z,30.30
2018-07-31T20:23:56.797Z,30.30
2018-07-31T20:26:25.407Z,30.20
2018-07-31T20:28:54.038Z,30.10
2018-07-31T20:31:22.648Z,30.10
2018-07-31T20:33:51.264Z,30.10
2018-07-31T20:36:19.901Z,30.20
2018-07-31T20:38:48.520Z,30.30
2018-07-31T20:41:17.178Z,30.40
2018-07-31T20:43:45.868Z,30.50
2018-07-31T20:46:14.530Z,30.40
2018-07-31T20:48:43.184Z,30.40
2018-07-31T20:51:11.863Z,30.20
2018-07-31T20:53:40.481Z,30.20
2018-07-31T20:56:09.087Z,30.10
2018-07-31T20:58:37.679Z,30.00
2018-07-31T21:01:06.341Z,29.90
2018-07-31T21:03:34.944Z,29.90
2018-07-31T21:06:03.628Z,29.80
2018-07-31T21:08:32.259Z,29.70
2018-07-31T21:11:00.900Z,29.70
2018-07-31T21:13:29.496Z,29.70
2018-07-31T21:15:58.108Z,29.70
2018-07-31T21:18:26.957Z,29.60
2018-07-31T21:20:55.880Z,29.40
2018-07-31T21:23:24.684Z,29.30
2018-07-31T21:25:53.292Z,29.10
2018-07-31T21:28:22.311Z,29.00
2018-07-31T21:30:50.887Z,28.80
2018-07-31T21:33:19.516Z,28.60
2018-07-31T21:35:48.156Z,28.50
2018-07-31T21:38:16.796Z,28.40
2018-07-31T21:40:45.404Z,28.40
2018-07-31T21:43:14.010Z,28.40
2018-07-31T21:45:42.624Z,28.40
2018-07-31T21:48:11.235Z,28.40
2018-07-31T21:50:39.904Z,28.50
2018-07-31T21:53:08.540Z,28.60
2018-07-31T21:55:37.187Z,28.50
2018-07-31T21:58:05.792Z,28.60
2018-07-31T22:01:37.461Z,28.60
2018-07-31T22:04:06.180Z,28.60
2018-07-31T22:06:34.806Z,28.50
2018-07-31T22:09:04.000Z,28.40
2018-07-31T22:11:32.639Z,28.40
2018-07-31T22:14:01.293Z,28.30
2018-07-31T22:16:29.904Z,28.30
2018-07-31T22:18:58.549Z,28.20
2018-07-31T22:21:27.232Z,28.20
2018-07-31T22:23:55.856Z,28.10
2018-07-31T22:26:24.452Z,28.00
2018-07-31T22:28:53.125Z,28.00
2018-07-31T22:31:21.728Z,27.90
2018-07-31T22:33:50.340Z,27.80
2018-07-31T22:36:18.952Z,27.80
2018-07-31T22:38:47.544Z,27.80
2018-07-31T22:41:16.144Z,27.70
2018-07-31T22:43:44.860Z,27.60
2018-07-31T22:46:13.404Z,27.50
2018-07-31T22:48:42.009Z,27.60
2018-07-31T22:51:10.599Z,27.60
2018-07-31T22:53:39.211Z,27.60
2018-07-31T22:56:07.807Z,27.60
2018-07-31T22:58:36.474Z,27.60
2018-07-31T23:01:05.128Z,27.60
2018-07-31T23:03:33.734Z,27.50
2018-07-31T23:06:02.339Z,27.40
2018-07-31T23:08:32.371Z,27.40
2018-07-31T23:11:01.519Z,27.20
2018-07-31T23:13:30.303Z,27.20
2018-07-31T23:15:58.992Z,27.10
2018-07-31T23:18:27.608Z,27.00
2018-07-31T23:20:56.269Z,27.00
2018-07-31T23:23:26.048Z,27.00
2018-07-31T23:25:56.825Z,27.00
2018-07-31T23:28:25.489Z,27.00
2018-07-31T23:30:54.156Z,27.00
2018-07-31T23:33:22.755Z,26.90
2018-07-31T23:35:51.620Z,26.90
2018-07-31T23:38:20.224Z,26.80
2018-07-31T23:40:49.171Z,26.80
2018-07-31T23:43:17.936Z,26.80
2018-07-31T23:45:46.655Z,26.70
2018-07-31T23:48:15.253Z,26.50
2018-07-31T23:50:43.956Z,26.50
2018-07-31T23:53:12.564Z,26.50
2018-07-31T23:55:41.160Z,26.50
2018-07-31T23:58:09.796Z,26.50
